Time;durP1;ratioP1;P1;durP2;ratioP2;P2;SDS_P1;SDS_P2;PMS_P1;PMS_P2;Temp;Humidity;BMP_temperature;BMP_pressure;BME280_temperature;BME280_humidity;BME280_pressure;Samples;Min_cycle;Max_cycle;Signal;HPM_P1;HPM_P2
2022/03/02 00:03:25;;;;;;;;;;;5.80;99.90;;;;;;8377169;28;19936;-70
2022/03/02 00:07:26;;;;;;;;;;;5.70;99.90;;;;;;8407067;28;19928;-70
2022/03/02 00:11:28;;;;;;;;;;;5.60;99.90;;;;;;8407642;28;19924;-70
2022/03/02 00:15:30;;;;;;;;;;;5.60;99.90;;;;;;8385035;28;20287;-71
2022/03/02 00:19:32;;;;;;;;;;;5.60;99.90;;;;;;8402830;28;19932;-71
2022/03/02 00:23:33;;;;;;;;;;;5.70;99.90;;;;;;8401780;28;19931;-71
2022/03/02 00:27:36;;;;;;;;;;;5.80;99.90;;;;;;8388776;28;20284;-71
2022/03/02 00:31:37;;;;;;;;;;;5.80;99.90;;;;;;8401713;28;19954;-70
2022/03/02 00:35:39;;;;;;;;;;;5.80;99.90;;;;;;8383457;28;19924;-71
2022/03/02 00:39:41;;;;;;;;;;;5.90;99.90;;;;;;8407833;28;19924;-71
2022/03/02 00:43:43;;;;;;;;;;;5.90;99.90;;;;;;8380593;28;19932;-70
2022/03/02 00:47:45;;;;;;;;;;;5.90;99.90;;;;;;8395709;28;19925;-71
2022/03/02 00:51:47;;;;;;;;;;;6.00;99.90;;;;;;8393949;28;19943;-71
2022/03/02 00:55:48;;;;;;;;;;;6.00;99.90;;;;;;8390322;28;19928;-71
2022/03/02 00:59:50;;;;;;;;;;;6.10;99.90;;;;;;8384247;28;19924;-71
2022/03/02 01:03:52;;;;;;;;;;;6.10;99.90;;;;;;8405304;28;19940;-71
2022/03/02 01:07:53;;;;;;;;;;;6.10;99.90;;;;;;8393349;28;20433;-70
2022/03/02 01:11:55;;;;;;;;;;;6.10;99.90;;;;;;8390592;28;19946;-71
2022/03/02 01:15:57;;;;;;;;;;;6.10;99.90;;;;;;8405365;28;19955;-71
2022/03/02 01:19:59;;;;;;;;;;;6.10;99.90;;;;;;8403001;28;19950;-70
2022/03/02 01:24:02;;;;;;;;;;;6.10;99.90;;;;;;8403728;28;19931;-71
2022/03/02 01:28:03;;;;;;;;;;;6.00;99.90;;;;;;8417318;28;19928;-71
2022/03/02 01:32:09;;;;;;;;;;;6.00;99.90;;;;;;8407268;28;19924;-71
2022/03/02 01:36:10;;;;;;;;;;;5.90;99.90;;;;;;8408705;28;19929;-70
2022/03/02 01:40:12;;;;;;;;;;;5.80;99.90;;;;;;8404547;28;19928;-71
2022/03/02 01:44:14;;;;;;;;;;;5.70;99.90;;;;;;8393432;28;19931;-71
2022/03/02 01:48:16;;;;;;;;;;;5.70;99.90;;;;;;8405227;28;19947;-70
2022/03/02 01:52:17;;;;;;;;;;;5.70;99.90;;;;;;8404514;28;19951;-71
2022/03/02 01:56:19;;;;;;;;;;;5.70;99.90;;;;;;8415049;28;20268;-71
2022/03/02 02:00:22;;;;;;;;;;;5.80;99.90;;;;;;8408194;28;19928;-71
2022/03/02 02:04:24;;;;;;;;;;;5.70;99.90;;;;;;8413379;28;19931;-70
2022/03/02 02:08:25;;;;;;;;;;;5.70;99.90;;;;;;8390838;28;19931;-71
2022/03/02 02:12:27;;;;;;;;;;;5.70;99.90;;;;;;8404661;28;20318;-71
2022/03/02 02:16:29;;;;;;;;;;;5.60;99.90;;;;;;8415040;28;19932;-71
2022/03/02 02:20:35;;;;;;;;;;;5.60;99.90;;;;;;8413475;28;19981;-71
2022/03/02 02:24:36;;;;;;;;;;;5.60;99.90;;;;;;8405737;28;19932;-71
2022/03/02 02:28:38;;;;;;;;;;;5.60;99.90;;;;;;8416608;28;20035;-71
2022/03/02 02:32:40;;;;;;;;;;;5.50;99.90;;;;;;8386630;28;19928;-70
2022/03/02 02:36:42;;;;;;;;;;;5.50;99.90;;;;;;8406812;28;19940;-71
2022/03/02 02:40:47;;;;;;;;;;;5.50;99.90;;;;;;8412281;28;19964;-71
2022/03/02 02:44:48;;;;;;;;;;;5.50;99.90;;;;;;8398661;28;20375;-71
2022/03/02 02:48:50;;;;;;;;;;;5.50;99.90;;;;;;8406116;28;19947;-71
2022/03/02 02:52:53;;;;;;;;;;;5.40;99.90;;;;;;8402712;28;20348;-70
2022/03/02 02:56:55;;;;;;;;;;;5.40;99.90;;;;;;8405943;28;20327;-71
2022/03/02 03:00:56;;;;;;;;;;;5.50;99.90;;;;;;8405565;28;19931;-71
2022/03/02 03:04:58;;;;;;;;;;;5.50;99.90;;;;;;8405421;28;19928;-71
2022/03/02 03:09:00;;;;;;;;;;;5.50;99.90;;;;;;8397867;28;20380;-71
2022/03/02 03:13:02;;;;;;;;;;;5.50;99.90;;;;;;8398508;28;19924;-71
2022/03/02 03:17:03;;;;;;;;;;;5.50;99.90;;;;;;8399778;28;19928;-71
2022/03/02 03:21:05;;;;;;;;;;;5.50;99.90;;;;;;8404272;28;20384;-71
2022/03/02 03:25:07;;;;;;;;;;;5.60;99.90;;;;;;8379172;28;19936;-71
2022/03/02 03:29:09;;;;;;;;;;;5.60;99.90;;;;;;8397358;28;19947;-71
2022/03/02 03:33:10;;;;;;;;;;;5.60;99.90;;;;;;8398408;28;19947;-70
2022/03/02 03:37:12;;;;;;;;;;;5.50;99.90;;;;;;8399935;28;19925;-71
2022/03/02 03:41:14;;;;;;;;;;;5.50;99.90;;;;;;8393724;28;20303;-70
2022/03/02 03:45:16;;;;;;;;;;;5.40;99.90;;;;;;8398674;28;20367;-70
2022/03/02 03:49:18;;;;;;;;;;;5.40;99.90;;;;;;8403101;28;19929;-70
2022/03/02 03:53:21;;;;;;;;;;;5.30;99.90;;;;;;8396298;28;19944;-70
2022/03/02 03:57:22;;;;;;;;;;;5.30;99.90;;;;;;8400236;28;19924;-70
2022/03/02 04:01:24;;;;;;;;;;;5.30;99.90;;;;;;8382067;28;19928;-70
2022/03/02 04:05:26;;;;;;;;;;;5.20;99.90;;;;;;8405629;28;19928;-70
2022/03/02 04:09:27;;;;;;;;;;;5.20;99.90;;;;;;8394884;28;20284;-71
2022/03/02 04:13:29;;;;;;;;;;;5.20;99.90;;;;;;8391492;28;20384;-70
2022/03/02 04:17:31;;;;;;;;;;;5.10;99.90;;;;;;8410473;28;19939;-70
2022/03/02 04:21:32;;;;;;;;;;;5.00;99.90;;;;;;8403943;28;19947;-70
2022/03/02 04:25:34;;;;;;;;;;;5.00;99.90;;;;;;8394161;28;19931;-70
2022/03/02 04:29:36;;;;;;;;;;;4.90;99.90;;;;;;8407921;28;19924;-70
2022/03/02 04:33:38;;;;;;;;;;;4.90;99.90;;;;;;8402604;28;19928;-71
2022/03/02 04:37:40;;;;;;;;;;;4.90;99.90;;;;;;8399071;28;19924;-70
2022/03/02 04:41:42;;;;;;;;;;;4.90;99.90;;;;;;8382576;28;19932;-70
2022/03/02 04:45:43;;;;;;;;;;;4.90;99.90;;;;;;8402568;28;19932;-70
2022/03/02 04:49:45;;;;;;;;;;;4.90;99.90;;;;;;8382729;28;19932;-70
2022/03/02 04:53:48;;;;;;;;;;;4.80;99.90;;;;;;8396633;28;19924;-70
2022/03/02 04:57:50;;;;;;;;;;;4.80;99.90;;;;;;8384391;28;19975;-70
2022/03/02 05:01:52;;;;;;;;;;;4.80;99.90;;;;;;8400040;28;20307;-70
2022/03/02 05:05:54;;;;;;;;;;;4.70;99.90;;;;;;8398761;28;19963;-70
2022/03/02 05:09:56;;;;;;;;;;;4.70;99.90;;;;;;8400891;28;20390;-70
2022/03/02 05:13:57;;;;;;;;;;;4.70;99.90;;;;;;8385255;28;19924;-70
2022/03/02 05:17:59;;;;;;;;;;;4.70;99.90;;;;;;8402751;28;19924;-70
2022/03/02 05:22:00;;;;;;;;;;;4.60;99.90;;;;;;8394073;28;19935;-70
2022/03/02 05:26:02;;;;;;;;;;;4.70;99.90;;;;;;8399824;28;20315;-70
2022/03/02 05:30:05;;;;;;;;;;;4.60;99.90;;;;;;8393799;28;20407;-70
2022/03/02 05:34:06;;;;;;;;;;;4.60;99.90;;;;;;8393450;28;19976;-70
2022/03/02 05:38:08;;;;;;;;;;;4.60;99.90;;;;;;8381098;28;20311;-71
2022/03/02 05:42:10;;;;;;;;;;;4.60;99.90;;;;;;8382594;28;20608;-70
2022/03/02 05:46:11;;;;;;;;;;;4.60;99.90;;;;;;8398474;28;20279;-70
2022/03/02 05:50:13;;;;;;;;;;;4.60;99.90;;;;;;8394000;28;19928;-70
2022/03/02 05:54:14;;;;;;;;;;;4.50;99.90;;;;;;8393910;28;20267;-70
2022/03/02 05:58:16;;;;;;;;;;;4.50;99.90;;;;;;8398214;28;20681;-70
2022/03/02 06:02:18;;;;;;;;;;;4.40;99.90;;;;;;8401612;28;19931;-70
2022/03/02 06:06:19;;;;;;;;;;;4.30;99.90;;;;;;8403074;28;19943;-70
2022/03/02 06:10:21;;;;;;;;;;;4.20;99.90;;;;;;8409879;28;19928;-70
2022/03/02 06:14:23;;;;;;;;;;;4.10;99.90;;;;;;8409633;28;19947;-70
2022/03/02 06:18:25;;;;;;;;;;;4.00;99.90;;;;;;8413830;28;20391;-70
2022/03/02 06:22:27;;;;;;;;;;;4.00;99.90;;;;;;8381802;28;19982;-70
2022/03/02 06:26:28;;;;;;;;;;;3.90;99.90;;;;;;8409358;28;19935;-70
2022/03/02 06:30:30;;;;;;;;;;;3.90;99.90;;;;;;8409960;28;19928;-70
2022/03/02 06:34:32;;;;;;;;;;;3.80;99.90;;;;;;8403053;28;19928;-70
2022/03/02 06:38:34;;;;;;;;;;;3.80;99.90;;;;;;8381327;28;19924;-70
2022/03/02 06:42:45;;;;;;;;;;;3.80;99.90;;;;;;8406981;28;19940;-70
2022/03/02 06:46:46;;;;;;;;;;;3.80;99.90;;;;;;8408263;28;19924;-70
2022/03/02 06:50:50;;;;;;;;;;;3.70;99.90;;;;;;8397323;28;19937;-70
2022/03/02 06:54:51;;;;;;;;;;;3.70;99.90;;;;;;8394386;28;19943;-70
2022/03/02 06:58:55;;;;;;;;;;;3.80;99.90;;;;;;8395400;28;19925;-70
2022/03/02 07:03:09;;;;;;;;;;;3.80;99.90;;;;;;8384900;28;19924;-70
2022/03/02 07:07:11;;;;;;;;;;;3.80;99.90;;;;;;8397495;28;19985;-70
2022/03/02 07:11:15;;;;;;;;;;;3.80;99.90;;;;;;8394245;28;20407;-70
2022/03/02 07:15:16;;;;;;;;;;;3.90;99.90;;;;;;8390834;28;19933;-70
2022/03/02 07:19:18;;;;;;;;;;;4.00;99.90;;;;;;8399248;28;20454;-70
2022/03/02 07:23:20;;;;;;;;;;;4.10;99.90;;;;;;8402811;28;19931;-70
2022/03/02 07:27:23;;;;;;;;;;;4.30;99.90;;;;;;8388103;28;20233;-70
2022/03/02 07:31:26;;;;;;;;;;;4.30;99.90;;;;;;8409363;28;19925;-70
2022/03/02 07:35:37;;;;;;;;;;;4.40;99.90;;;;;;8409412;28;19973;-70
2022/03/02 07:39:40;;;;;;;;;;;4.60;99.90;;;;;;8403781;28;19947;-70
2022/03/02 07:43:42;;;;;;;;;;;4.70;99.90;;;;;;8404735;28;19940;-70
2022/03/02 07:47:44;;;;;;;;;;;4.90;99.90;;;;;;8412510;28;19932;-70
2022/03/02 07:51:46;;;;;;;;;;;5.00;99.90;;;;;;8400098;28;19924;-70
2022/03/02 07:55:48;;;;;;;;;;;5.20;99.90;;;;;;8388062;28;19931;-70
2022/03/02 07:59:51;;;;;;;;;;;5.50;99.90;;;;;;8405163;28;19943;-70
2022/03/02 08:03:54;;;;;;;;;;;5.70;99.90;;;;;;8408294;28;19974;-70
2022/03/02 08:07:57;;;;;;;;;;;5.90;99.90;;;;;;8396496;28;19939;-70
2022/03/02 08:12:00;;;;;;;;;;;6.10;99.90;;;;;;8406556;28;19970;-70
2022/03/02 08:16:02;;;;;;;;;;;6.30;99.90;;;;;;8403593;28;20332;-70
2022/03/02 08:20:05;;;;;;;;;;;6.50;99.90;;;;;;8403619;28;19974;-70
2022/03/02 08:24:08;;;;;;;;;;;6.70;99.90;;;;;;8409406;28;19935;-70
2022/03/02 08:28:10;;;;;;;;;;;6.80;99.90;;;;;;8406801;28;20360;-70
2022/03/02 08:32:12;;;;;;;;;;;7.00;99.90;;;;;;8396595;28;19939;-70
2022/03/02 08:36:15;;;;;;;;;;;7.20;99.90;;;;;;8387244;28;19932;-70
2022/03/02 08:40:17;;;;;;;;;;;7.30;99.90;;;;;;8406119;28;19935;-70
2022/03/02 08:44:19;;;;;;;;;;;7.40;99.90;;;;;;8414509;28;19932;-70
2022/03/02 08:48:21;;;;;;;;;;;7.60;99.90;;;;;;8410648;28;20385;-70
2022/03/02 08:52:27;;;;;;;;;;;7.80;99.90;;;;;;8376282;28;20291;-71
2022/03/02 08:56:29;;;;;;;;;;;7.90;99.90;;;;;;8411230;28;19974;-70
2022/03/02 09:00:32;;;;;;;;;;;8.00;99.90;;;;;;8396987;28;19925;-70
2022/03/02 09:04:35;;;;;;;;;;;8.10;99.90;;;;;;8405791;28;19925;-70
2022/03/02 09:08:37;;;;;;;;;;;8.20;99.90;;;;;;8392353;28;19932;-70
2022/03/02 09:12:41;;;;;;;;;;;8.30;99.90;;;;;;8389551;28;19935;-70
2022/03/02 09:16:44;;;;;;;;;;;8.50;99.90;;;;;;8409819;28;19967;-70
2022/03/02 09:20:48;;;;;;;;;;;8.70;99.90;;;;;;8408794;28;19928;-70
2022/03/02 09:24:50;;;;;;;;;;;8.90;99.90;;;;;;8409110;28;20399;-70
2022/03/02 09:28:52;;;;;;;;;;;9.10;99.90;;;;;;8409728;28;19924;-70
2022/03/02 09:32:55;;;;;;;;;;;9.30;99.90;;;;;;8404150;28;19924;-71
2022/03/02 09:36:57;;;;;;;;;;;9.40;99.90;;;;;;8400180;28;19931;-70
2022/03/02 09:41:00;;;;;;;;;;;9.50;99.90;;;;;;8403724;28;19925;-70
2022/03/02 09:45:06;;;;;;;;;;;9.60;99.90;;;;;;8413348;28;19924;-70
2022/03/02 09:49:10;;;;;;;;;;;9.70;99.90;;;;;;8413357;28;19931;-70
2022/03/02 09:53:12;;;;;;;;;;;9.80;99.90;;;;;;8416055;28;19939;-70
2022/03/02 09:57:17;;;;;;;;;;;10.00;99.90;;;;;;8420369;28;19931;-70
2022/03/02 10:01:23;;;;;;;;;;;10.20;99.90;;;;;;8396195;28;19931;-70
2022/03/02 10:05:27;;;;;;;;;;;10.50;99.90;;;;;;8409587;28;19924;-71
2022/03/02 10:09:29;;;;;;;;;;;10.90;99.90;;;;;;8400434;28;19940;-71
2022/03/02 10:13:31;;;;;;;;;;;11.30;99.90;;;;;;8411009;28;19924;-71
2022/03/02 10:17:34;;;;;;;;;;;11.60;99.90;;;;;;8394799;28;19931;-71
2022/03/02 10:21:49;;;;;;;;;;;11.90;99.90;;;;;;8393934;28;20022;-71
2022/03/02 10:26:03;;;;;;;;;;;12.10;99.90;;;;;;8401133;28;19924;-71
2022/03/02 10:30:06;;;;;;;;;;;12.40;99.90;;;;;;8404043;28;19932;-72
2022/03/02 10:34:18;;;;;;;;;;;12.70;99.90;;;;;;8408028;28;19924;-71
2022/03/02 10:38:28;;;;;;;;;;;12.90;99.90;;;;;;8406399;28;19935;-71
2022/03/02 10:42:30;;;;;;;;;;;13.40;99.90;;;;;;8411280;28;19928;-71
2022/03/02 10:46:33;;;;;;;;;;;13.70;99.90;;;;;;8410256;28;20611;-71
2022/03/02 10:50:39;;;;;;;;;;;13.90;99.90;;;;;;8406307;28;20036;-71
2022/03/02 10:54:41;;;;;;;;;;;14.30;99.90;;;;;;8393589;28;19931;-71
2022/03/02 10:58:47;;;;;;;;;;;14.60;99.90;;;;;;8397703;28;19925;-71
2022/03/02 11:02:54;;;;;;;;;;;15.00;99.90;;;;;;8404483;28;19936;-71
2022/03/02 11:06:56;;;;;;;;;;;15.50;99.90;;;;;;8399263;28;19931;-71
2022/03/02 11:11:18;;;;;;;;;;;15.70;99.90;;;;;;8417314;28;20094;-70
2022/03/02 11:15:23;;;;;;;;;;;15.90;99.90;;;;;;8413208;28;19928;-71
2022/03/02 11:19:26;;;;;;;;;;;15.90;99.90;;;;;;8410197;28;20326;-71
2022/03/02 11:23:30;;;;;;;;;;;16.10;99.90;;;;;;8409390;28;19975;-71
2022/03/02 11:27:35;;;;;;;;;;;16.70;99.90;;;;;;8408275;28;19924;-71
2022/03/02 11:31:47;;;;;;;;;;;17.30;99.90;;;;;;8405397;28;19925;-71
2022/03/02 11:35:50;;;;;;;;;;;17.70;99.90;;;;;;8412731;28;20342;-71
2022/03/02 11:39:51;;;;;;;;;;;18.20;99.90;;;;;;8394201;28;19939;-71
2022/03/02 11:43:53;;;;;;;;;;;18.60;99.90;;;;;;8406651;28;19971;-71
2022/03/02 11:47:56;;;;;;;;;;;18.90;99.90;;;;;;8408745;28;19932;-71
2022/03/02 11:52:06;;;;;;;13.57;9.38;;;19.30;99.90;;;;;;8402921;28;19987;-71
2022/03/02 11:56:09;;;;;;;;;;;19.40;99.90;;;;;;8400658;28;19932;-71
2022/03/02 12:00:12;;;;;;;;;;;19.40;99.90;;;;;;8407816;28;20321;-71
2022/03/02 12:04:14;;;;;;;;;;;19.30;99.90;;;;;;8398229;28;19932;-71
2022/03/02 12:08:17;;;;;;;;;;;19.50;99.90;;;;;;8409615;28;19973;-71
2022/03/02 12:12:21;;;;;;;;;;;20.00;99.90;;;;;;8406264;28;19942;-71
2022/03/02 12:16:36;;;;;;;;;;;20.10;99.90;;;;;;8404579;28;19982;-71
2022/03/02 12:20:48;;;;;;;;;;;20.00;99.90;;;;;;8403919;28;19928;-71
2022/03/02 12:24:50;;;;;;;12.50;8.80;;;20.20;99.90;;;;;;8409880;28;19924;-71
2022/03/02 12:28:56;;;;;;;;;;;20.60;99.90;;;;;;8405528;28;19928;-71
2022/03/02 12:32:58;;;;;;;;;;;21.00;99.90;;;;;;8398588;28;19924;-71
2022/03/02 12:37:00;;;;;;;;;;;21.30;99.90;;;;;;8408030;28;19940;-70
2022/03/02 12:41:01;;;;;;;;;;;21.40;99.90;;;;;;8405781;28;19943;-71
2022/03/02 12:45:03;;;;;;;;;;;21.20;99.90;;;;;;8401394;28;19932;-71
2022/03/02 12:49:06;;;;;;;;;;;21.20;99.60;;;;;;8405168;28;20030;-71
2022/03/02 12:53:08;;;;;;;;;;;21.20;98.80;;;;;;8395304;28;19939;-71
2022/03/02 12:57:12;;;;;;;;;;;20.90;96.80;;;;;;8399252;28;19928;-71
2022/03/02 13:01:14;;;;;;;;;;;21.20;95.70;;;;;;8384069;28;19939;-71
2022/03/02 13:05:18;;;;;;;;;;;21.50;96.40;;;;;;8405184;28;19986;-71
2022/03/02 13:09:25;;;;;;;;;;;21.80;97.10;;;;;;8404263;28;19968;-70
2022/03/02 13:13:45;;;;;;;;;;;21.40;96.70;;;;;;8395470;28;19924;-71
2022/03/02 13:18:07;;;;;;;;;;;20.60;93.50;;;;;;8387030;28;19931;-71
2022/03/02 13:22:15;;;;;;;;;;;19.90;90.40;;;;;;8375454;28;19928;-70
2022/03/02 13:26:17;;;;;;;;;;;19.40;85.00;;;;;;8378530;28;19928;-71
2022/03/02 13:30:19;;;;;;;;;;;19.00;81.40;;;;;;8400589;28;20413;-71
2022/03/02 13:34:21;;;;;;;;;;;18.70;78.40;;;;;;8398346;28;19928;-70
2022/03/02 13:38:39;;;;;;;;;;;18.40;76.20;;;;;;8321364;28;1745534;-70
2022/03/02 13:42:40;;;;;;;;;;;18.10;74.10;;;;;;8402717;28;19932;-70
2022/03/02 13:46:42;;;;;;;;;;;17.70;73.40;;;;;;8402124;28;19924;-71
2022/03/02 13:51:04;;;;;;;;;;;17.60;72.80;;;;;;8401492;28;20149;-71
2022/03/02 13:55:12;;;;;;;;;;;17.30;71.10;;;;;;8404017;28;19925;-71
2022/03/02 13:59:33;;;;;;;;;;;17.00;68.10;;;;;;8396898;28;20015;-71
2022/03/02 14:03:39;;;;;;;;;;;16.70;69.80;;;;;;8382318;28;19924;-71
2022/03/02 14:07:41;;;;;;;;;;;16.70;69.50;;;;;;8403722;28;19935;-71
2022/03/02 14:11:46;;;;;;;;;;;16.70;70.30;;;;;;8400176;28;19924;-71
2022/03/02 14:15:48;;;;;;;;;;;16.70;69.10;;;;;;8397547;28;19928;-71
2022/03/02 14:19:50;;;;;;;;;;;16.60;68.80;;;;;;8388833;28;19932;-71
2022/03/02 14:23:51;;;;;;;;;;;16.60;68.70;;;;;;8407825;28;19932;-71
2022/03/02 14:28:00;;;;;;;;;;;16.60;68.00;;;;;;8409822;28;20395;-71
2022/03/02 14:32:06;;;;;;;;;;;16.70;68.40;;;;;;8409890;28;19932;-71
2022/03/02 14:36:17;;;;;;;;;;;16.80;69.00;;;;;;8404859;28;19932;-71
2022/03/02 14:40:19;;;;;;;;;;;17.20;70.10;;;;;;8395396;28;19924;-71
2022/03/02 14:44:21;;;;;;;;;;;18.10;72.90;;;;;;8404079;28;19932;-71
2022/03/02 14:48:24;;;;;;;;;;;18.90;74.30;;;;;;8407917;28;19924;-71
2022/03/02 14:52:30;;;;;;;;;;;19.30;73.60;;;;;;8399697;28;19924;-71
2022/03/02 14:56:37;;;;;;;;;;;19.30;73.60;;;;;;8410055;28;19931;-71
2022/03/02 15:00:46;;;;;;;;;;;19.30;73.80;;;;;;8410147;28;19928;-71
2022/03/02 15:04:58;;;;;;;;;;;19.10;72.90;;;;;;8404282;28;19973;-71
2022/03/02 15:09:01;;;;;;;;;;;18.90;71.50;;;;;;8392764;28;19935;-71
2022/03/02 15:17:46;;;;;;;;;;;19.20;71.60;;;;;;8403937;28;19997;-71
2022/03/02 15:21:48;;;;;;;;;;;19.20;71.30;;;;;;8408273;28;20425;-71
2022/03/02 15:25:50;;;;;;;;;;;19.30;71.30;;;;;;8393157;28;19924;-71
2022/03/02 15:29:54;;;;;;;;;;;19.70;73.30;;;;;;8399582;28;19930;-71
2022/03/02 15:33:56;;;;;;;;;;;20.30;73.50;;;;;;8401053;28;20433;-71
2022/03/02 15:37:57;;;;;;;;;;;20.60;72.30;;;;;;8403528;28;20461;-71
2022/03/02 15:42:02;;;;;;;;;;;20.50;70.30;;;;;;8394536;28;19939;-71
2022/03/02 15:46:03;;;;;;;;;;;20.30;70.00;;;;;;8406081;28;19932;-71
2022/03/02 15:50:10;;;;;;;;;;;20.20;69.10;;;;;;8406757;28;19932;-71
2022/03/02 15:54:12;;;;;;;;;;;20.10;67.60;;;;;;8396186;28;20329;-71
2022/03/02 15:58:16;;;;;;;;;;;20.10;67.60;;;;;;8413504;28;19929;-71
2022/03/02 16:02:31;;;;;;;;;;;20.00;66.60;;;;;;8395547;28;19932;-71
2022/03/02 16:06:32;;;;;;;;;;;20.00;67.20;;;;;;8399111;28;20011;-71
2022/03/02 16:10:34;;;;;;;;;;;20.10;66.20;;;;;;8384348;28;19924;-71
2022/03/02 16:14:52;;;;;;;;;;;19.90;65.70;;;;;;8377906;28;19951;-71
2022/03/02 16:19:13;;;;;;;;;;;19.80;64.70;;;;;;8389171;28;19925;-71
2022/03/02 16:23:18;;;;;;;;;;;19.30;62.30;;;;;;8404408;28;19930;-71
2022/03/02 16:27:26;;;;;;;;;;;18.80;61.60;;;;;;8398590;28;19928;-71
2022/03/02 16:31:28;;;;;;;;;;;18.20;59.60;;;;;;8400064;28;20335;-71
2022/03/02 16:35:30;;;;;;;;;;;17.70;59.30;;;;;;8403866;28;20299;-71
2022/03/02 16:39:32;;;;;;;;;;;17.40;58.90;;;;;;8410347;28;20412;-71
2022/03/02 16:43:34;;;;;;;;;;;17.10;58.00;;;;;;8401432;28;20402;-71
2022/03/02 16:47:36;;;;;;;;;;;16.70;58.00;;;;;;8405079;28;20022;-71
2022/03/02 16:51:37;;;;;;;;;;;16.30;57.50;;;;;;8392645;28;24012;-71
2022/03/02 16:55:39;;;;;;;;;;;15.90;57.20;;;;;;8384638;28;19935;-71
2022/03/02 16:59:42;;;;;;;;;;;15.50;57.00;;;;;;8386664;28;19924;-71
2022/03/02 17:03:44;;;;;;;;;;;15.10;56.50;;;;;;8386624;28;20314;-71
2022/03/02 17:07:46;;;;;;;;;;;14.70;55.70;;;;;;8369079;28;20388;-71
2022/03/02 17:11:48;;;;;;;;;;;14.30;55.40;;;;;;8363422;28;19928;-71
2022/03/02 17:15:51;;;;;;;;;;;14.00;55.10;;;;;;8384841;28;19924;-71
2022/03/02 17:19:52;;;;;;;;;;;13.70;55.00;;;;;;8382921;28;19924;-71
2022/03/02 17:23:54;;;;;;;;;;;13.50;55.00;;;;;;8370701;28;19928;-71
2022/03/02 17:27:59;;;;;;;;;;;13.40;56.20;;;;;;8386833;28;19935;-71
2022/03/02 17:32:06;;;;;;;;;;;13.30;56.00;;;;;;8382216;28;19928;-71
2022/03/02 17:36:08;;;;;;;;;;;13.10;56.30;;;;;;8391953;28;20288;-71
2022/03/02 17:40:10;;;;;;;;;;;12.90;56.60;;;;;;8377457;28;20292;-71
2022/03/02 17:44:12;;;;;;;;;;;12.50;56.90;;;;;;8388014;28;20307;-71
2022/03/02 17:48:15;;;;;;;;;;;12.20;57.20;;;;;;8385173;28;20181;-71
2022/03/02 17:52:17;;;;;;;;;;;11.90;57.40;;;;;;8365725;28;19939;-71
2022/03/02 17:56:19;;;;;;;;;;;11.60;57.80;;;;;;8382355;28;20267;-71
2022/03/02 18:00:20;;;;;;;;;;;11.30;58.10;;;;;;8378264;28;19928;-71
2022/03/02 18:04:22;;;;;;;;;;;11.00;58.10;;;;;;8385096;28;19932;-71
2022/03/02 18:08:24;;;;;;;;;;;10.80;58.10;;;;;;8392144;28;20265;-71
2022/03/02 18:12:27;;;;;;;;;;;10.60;58.10;;;;;;8388861;28;20351;-71
2022/03/02 18:16:29;;;;;;;8.77;5.63;;;10.40;58.40;;;;;;8392682;28;20448;-71
2022/03/02 18:20:31;;;;;;;11.38;5.63;;;10.30;58.50;;;;;;8389078;28;20083;-71
2022/03/02 18:24:34;;;;;;;10.70;5.97;;;10.10;58.60;;;;;;8377821;28;20105;-71
2022/03/02 18:28:36;;;;;;;9.85;5.50;;;9.90;59.70;;;;;;8375616;28;20412;-70
2022/03/02 18:32:41;;;;;;;10.63;5.80;;;9.70;60.70;;;;;;8387658;28;20052;-71
2022/03/02 18:36:44;;;;;;;;;;;9.50;60.20;;;;;;8373369;28;20087;-71
2022/03/02 18:40:46;;;;;;;;;;;9.50;60.40;;;;;;8388684;28;20350;-71
2022/03/02 18:44:48;;;;;;;;;;;9.50;60.70;;;;;;8370738;28;20010;-71
2022/03/02 18:48:50;;;;;;;;;;;9.40;61.00;;;;;;8386982;28;20347;-71
2022/03/02 18:52:54;;;;;;;12.40;6.25;;;9.30;61.20;;;;;;8391750;28;19936;-70
2022/03/02 18:56:56;;;;;;;;;;;9.20;61.40;;;;;;8387496;28;20393;-71
2022/03/02 19:00:58;;;;;;;;;;;9.00;61.40;;;;;;8389353;28;20371;-71
2022/03/02 19:05:00;;;;;;;11.35;6.22;;;8.80;61.40;;;;;;8372315;28;19948;-71
2022/03/02 19:09:05;;;;;;;10.52;6.07;;;8.60;61.60;;;;;;8387910;28;20060;-71
2022/03/02 19:13:07;;;;;;;12.05;6.45;;;8.40;61.70;;;;;;8377376;28;20048;-71
2022/03/02 19:17:09;;;;;;;9.93;5.60;;;8.30;61.80;;;;;;8388923;28;20041;-71
2022/03/02 19:21:15;;;;;;;12.07;6.55;;;8.20;62.20;;;;;;8371065;28;20392;-71
2022/03/02 19:25:17;;;;;;;12.52;7.05;;;8.20;62.70;;;;;;8391572;28;20067;-71
2022/03/02 19:29:23;;;;;;;11.60;6.95;;;8.10;62.70;;;;;;8380926;28;20043;-71
2022/03/02 19:33:26;;;;;;;11.27;6.15;;;8.10;62.60;;;;;;8392116;28;20074;-71
2022/03/02 19:37:27;;;;;;;10.73;5.60;;;7.90;62.50;;;;;;8376600;28;20051;-71
2022/03/02 19:41:29;;;;;;;13.38;6.70;;;7.70;62.50;;;;;;8394303;28;20273;-71
2022/03/02 19:45:31;;;;;;;10.93;6.38;;;7.60;63.20;;;;;;8385393;28;20040;-71
2022/03/02 19:49:35;;;;;;;12.40;6.22;;;7.50;62.60;;;;;;8387396;28;20044;-71
2022/03/02 19:53:37;;;;;;;9.60;5.72;;;7.30;62.80;;;;;;8389633;28;20484;-71
2022/03/02 19:57:42;;;;;;;10.73;5.63;;;7.20;63.10;;;;;;8384246;28;20041;-71
2022/03/02 20:01:44;;;;;;;8.70;5.38;;;7.10;63.20;;;;;;8396534;28;20055;-71
2022/03/02 20:05:46;;;;;;;10.57;5.88;;;7.00;63.10;;;;;;8385090;28;20049;-71
2022/03/02 20:09:48;;;;;;;10.07;5.20;;;6.80;63.00;;;;;;8384777;28;20056;-71
2022/03/02 20:13:50;;;;;;;12.27;6.13;;;6.70;63.20;;;;;;8396264;28;20045;-71
2022/03/02 20:17:52;;;;;;;10.63;5.88;;;6.50;63.20;;;;;;8386237;28;20724;-70
2022/03/02 20:21:55;;;;;;;12.02;5.93;;;6.50;63.30;;;;;;8387861;28;20055;-71
2022/03/02 20:25:58;;;;;;;9.98;5.32;;;6.50;63.40;;;;;;8395165;28;20082;-71
2022/03/02 20:30:00;;;;;;;10.50;5.90;;;6.50;63.40;;;;;;8395587;28;20045;-71
2022/03/02 20:34:02;;;;;;;;;;;6.40;63.40;;;;;;8397773;28;20435;-71
2022/03/02 20:38:03;;;;;;;;;;;6.30;63.50;;;;;;8398858;28;20380;-71
2022/03/02 20:42:06;;;;;;;;;;;6.20;63.70;;;;;;8390930;28;21077;-71
2022/03/02 20:46:08;;;;;;;;;;;6.10;63.50;;;;;;8387736;28;19927;-71
2022/03/02 20:50:10;;;;;;;;;;;6.00;63.40;;;;;;8394809;28;20010;-71
2022/03/02 20:54:12;;;;;;;;;;;6.10;63.50;;;;;;8401084;28;19930;-71
2022/03/02 20:58:15;;;;;;;;;;;6.10;63.50;;;;;;8394617;28;20015;-71
2022/03/02 21:02:16;;;;;;;;;;;6.10;63.40;;;;;;8391539;28;19921;-71
2022/03/02 21:06:19;;;;;;;;;;;6.00;63.40;;;;;;8394708;28;20406;-71
2022/03/02 21:10:21;;;;;;;;;;;5.90;63.50;;;;;;8383270;28;20345;-71
2022/03/02 21:14:22;;;;;;;;;;;5.80;63.50;;;;;;8392186;28;19928;-71
2022/03/02 21:18:24;;;;;;;;;;;5.80;63.40;;;;;;8396864;28;20247;-70
2022/03/02 21:22:26;;;;;;;;;;;5.80;63.00;;;;;;8392840;28;20299;-71
2022/03/02 21:26:27;;;;;;;;;;;5.80;63.30;;;;;;8376328;28;20033;-70
2022/03/02 21:30:29;;;;;;;;;;;5.90;63.20;;;;;;8396876;28;20288;-71
2022/03/02 21:34:34;;;;;;;;;;;5.90;62.90;;;;;;8395952;28;19920;-70
2022/03/02 21:38:36;;;;;;;;;;;5.90;62.80;;;;;;8387615;28;19951;-71
2022/03/02 21:42:38;;;;;;;;;;;6.00;62.70;;;;;;8403745;28;19931;-70
2022/03/02 21:46:40;;;;;;;;;;;5.90;62.60;;;;;;8398411;28;19920;-71
2022/03/02 21:50:41;;;;;;;;;;;5.90;62.60;;;;;;8400488;28;19978;-70
2022/03/02 21:54:43;;;;;;;;;;;5.90;62.60;;;;;;8385029;28;19939;-71
2022/03/02 21:58:45;;;;;;;;;;;5.90;62.50;;;;;;8398369;28;19928;-71
2022/03/02 22:02:46;;;;;;;;;;;5.90;62.30;;;;;;8410202;28;20011;-71
2022/03/02 22:06:48;;;;;;;;;;;5.90;62.20;;;;;;8407832;28;19927;-71
2022/03/02 22:10:50;;;;;;;;;;;5.80;62.40;;;;;;8415648;28;19927;-71
2022/03/02 22:14:52;;;;;;;;;;;5.80;62.40;;;;;;8413252;28;19931;-70
2022/03/02 22:18:54;;;;;;;;;;;5.70;62.60;;;;;;8417796;28;19920;-71
2022/03/02 22:22:56;;;;;;;;;;;5.70;62.70;;;;;;8412542;28;19931;-71
2022/03/02 22:26:58;;;;;;;;;;;5.60;62.50;;;;;;8411565;28;19924;-71
2022/03/02 22:30:59;;;;;;;;;;;5.60;62.30;;;;;;8389657;28;19927;-71
2022/03/02 22:35:01;;;;;;;;;;;5.60;62.30;;;;;;8416982;28;19974;-71
2022/03/02 22:39:05;;;;;;;;;;;5.50;61.90;;;;;;8410576;28;19952;-71
2022/03/02 22:43:06;;;;;;;;;;;5.50;62.20;;;;;;8388277;28;19920;-71
2022/03/02 22:47:09;;;;;;;;;;;5.40;61.90;;;;;;8416594;28;19932;-70
2022/03/02 22:51:10;;;;;;;;;;;5.40;61.80;;;;;;8413728;28;19961;-71
2022/03/02 22:55:12;;;;;;;;;;;5.40;61.90;;;;;;8418355;28;19920;-71
2022/03/02 22:59:16;;;;;;;;;;;5.30;61.90;;;;;;8413640;28;20331;-71
2022/03/02 23:03:19;;;;;;;;;;;5.10;61.60;;;;;;8399860;28;19920;-71
2022/03/02 23:16:02;;;;;;;14.90;7.68;;;4.70;62.30;;;;;;8402029;28;19927;-71
2022/03/02 23:20:08;;;;;;;13.88;7.13;;;4.60;62.00;;;;;;8412346;28;20508;-71
2022/03/02 23:24:09;;;;;;;14.90;7.28;;;4.60;62.30;;;;;;8414233;28;20060;-71
2022/03/02 23:28:13;;;;;;;14.30;7.85;;;4.60;62.30;;;;;;8408695;28;20501;-71
2022/03/02 23:32:15;;;;;;;14.98;7.90;;;4.60;62.20;;;;;;8420690;28;20072;-71
2022/03/02 23:36:17;;;;;;;15.00;7.15;;;4.70;62.00;;;;;;8382779;28;20052;-71
2022/03/02 23:40:18;;;;;;;14.70;7.53;;;4.60;61.90;;;;;;8388736;28;20064;-71
2022/03/02 23:44:20;;;;;;;;;;;4.40;62.30;;;;;;8412956;28;20052;-71